createdAt,value
2022-09-06T00:00:18.707Z,7.95
2022-09-06T00:02:46.058Z,8.10
2022-09-06T00:05:13.587Z,9.38
2022-09-06T00:07:41.375Z,7.65
2022-09-06T00:10:09.218Z,8.65
2022-09-06T00:12:37.141Z,9.65
2022-09-06T00:15:05.331Z,9.50
2022-09-06T00:17:33.576Z,9.07
2022-09-06T00:20:00.891Z,8.23
2022-09-06T00:22:27.911Z,10.57
2022-09-06T00:24:54.927Z,10.27
2022-09-06T00:27:22.462Z,9.38
2022-09-06T00:29:49.551Z,10.15
2022-09-06T00:32:16.560Z,9.80
2022-09-06T00:34:43.576Z,8.93
2022-09-06T00:37:10.571Z,9.13
2022-09-06T00:39:37.569Z,8.38
2022-09-06T00:42:12.007Z,10.50
2022-09-06T00:44:39.654Z,11.48
2022-09-06T00:47:08.789Z,9.00
2022-09-06T00:49:41.468Z,10.43
2022-09-06T00:52:12.999Z,9.52
2022-09-06T00:54:41.052Z,13.00
2022-09-06T00:57:08.508Z,11.88
2022-09-06T00:59:38.209Z,10.13
2022-09-06T01:02:05.866Z,10.07
2022-09-06T01:04:33.956Z,9.88
2022-09-06T01:07:34.307Z,10.38
2022-09-06T01:10:22.832Z,9.85
2022-09-06T01:13:01.549Z,9.85
2022-09-06T01:15:40.645Z,9.80
2022-09-06T01:18:35.545Z,11.82
2022-09-06T01:21:19.747Z,10.20
2022-09-06T01:24:18.725Z,10.35
2022-09-06T01:27:16.081Z,10.63
2022-09-06T01:30:05.488Z,12.40
2022-09-06T01:32:45.207Z,10.85
2022-09-06T01:35:34.115Z,10.40
2022-09-06T01:38:02.057Z,9.85
2022-09-06T01:40:29.328Z,9.93
2022-09-06T01:42:57.781Z,10.13
2022-09-06T01:45:44.197Z,9.82
2022-09-06T01:48:29.108Z,11.55
2022-09-06T01:51:24.603Z,10.85
2022-09-06T01:54:03.946Z,11.57
2022-09-06T01:57:01.385Z,11.63
2022-09-06T02:00:06.047Z,10.55
2022-09-06T02:02:51.518Z,10.60
2022-09-06T02:05:28.913Z,11.45
2022-09-06T02:08:01.734Z,11.30
2022-09-06T02:10:43.161Z,10.90
2022-09-06T02:13:12.972Z,11.52
2022-09-06T02:15:45.892Z,10.48
2022-09-06T02:18:19.070Z,12.00
2022-09-06T02:20:52.380Z,11.70
2022-09-06T02:23:23.664Z,10.75
2022-09-06T02:26:13.491Z,11.90
2022-09-06T02:28:40.962Z,12.13
2022-09-06T02:31:36.104Z,9.77
2022-09-06T02:34:04.045Z,11.23
2022-09-06T02:36:32.519Z,11.15
2022-09-06T02:39:02.800Z,9.52
2022-09-06T02:41:31.186Z,11.35
2022-09-06T02:43:58.522Z,10.10
2022-09-06T02:46:25.697Z,10.02
2022-09-06T02:48:52.859Z,10.20
2022-09-06T02:51:20.772Z,11.00
2022-09-06T02:53:47.874Z,10.57
2022-09-06T02:56:15.023Z,9.73
2022-09-06T02:58:42.122Z,10.43
2022-09-06T03:01:09.436Z,10.50
2022-09-06T03:03:36.636Z,10.32
2022-09-06T03:06:03.926Z,8.68
2022-09-06T03:08:33.730Z,9.63
2022-09-06T03:11:01.560Z,9.20
2022-09-06T03:13:29.034Z,9.75
2022-09-06T03:15:58.115Z,10.18
2022-09-06T03:18:26.147Z,9.32
2022-09-06T03:20:54.399Z,9.40
2022-09-06T03:23:24.037Z,10.32
2022-09-06T03:25:51.468Z,9.68
2022-09-06T03:28:19.854Z,10.23
2022-09-06T03:30:48.896Z,10.52
2022-09-06T03:33:16.148Z,12.00
2022-09-06T03:35:57.622Z,9.02
2022-09-06T03:38:27.354Z,9.35
2022-09-06T03:40:54.853Z,8.88
2022-09-06T03:43:23.527Z,9.98
2022-09-06T03:45:57.191Z,9.90
2022-09-06T03:48:27.433Z,8.15
2022-09-06T03:50:56.411Z,9.52
2022-09-06T03:53:25.890Z,8.45
2022-09-06T03:55:54.685Z,8.98
2022-09-06T03:58:23.769Z,9.90
2022-09-06T04:01:04.957Z,9.18
2022-09-06T04:03:32.372Z,9.90
2022-09-06T04:05:59.554Z,9.93
2022-09-06T04:08:26.800Z,10.65
2022-09-06T04:10:55.460Z,9.98
2022-09-06T04:13:23.487Z,9.30
2022-09-06T04:15:51.313Z,10.07
2022-09-06T04:18:18.962Z,10.07
2022-09-06T04:20:50.519Z,9.95
2022-09-06T04:25:48.867Z,8.77
2022-09-06T04:28:18.317Z,7.25
2022-09-06T04:30:51.677Z,8.73
2022-09-06T04:33:18.712Z,8.30
2022-09-06T04:35:59.420Z,9.43
2022-09-06T04:38:28.575Z,9.27
2022-09-06T04:40:56.114Z,7.80
2022-09-06T04:43:23.905Z,8.10
2022-09-06T04:45:51.113Z,9.65
2022-09-06T04:48:18.227Z,8.52
2022-09-06T04:50:45.358Z,9.25
2022-09-06T04:53:12.421Z,7.75
2022-09-06T04:55:39.506Z,9.07
2022-09-06T04:58:06.786Z,11.43
2022-09-06T05:00:36.053Z,9.30
2022-09-06T05:03:03.079Z,10.13
2022-09-06T05:05:30.423Z,8.88
2022-09-06T05:07:57.623Z,11.52
2022-09-06T05:10:25.015Z,10.68
2022-09-06T05:12:54.053Z,9.05
2022-09-06T05:15:23.149Z,8.07
2022-09-06T05:17:50.406Z,8.55
2022-09-06T05:20:17.727Z,8.13
2022-09-06T05:22:52.620Z,8.50
2022-09-06T05:25:19.854Z,7.35
2022-09-06T05:27:46.944Z,10.90
2022-09-06T05:30:14.440Z,8.23
2022-09-06T05:32:48.694Z,11.68
2022-09-06T05:35:16.252Z,8.55
2022-09-06T05:37:43.309Z,11.02
2022-09-06T05:40:10.661Z,8.93
2022-09-06T05:42:37.895Z,9.98
2022-09-06T05:45:06.875Z,10.73
2022-09-06T05:47:35.546Z,10.93
2022-09-06T05:50:03.006Z,10.43
2022-09-06T05:52:30.316Z,10.10
2022-09-06T05:54:57.299Z,9.82
2022-09-06T05:57:24.684Z,8.88
2022-09-06T05:59:53.610Z,12.18
2022-09-06T06:02:21.929Z,10.30
2022-09-06T06:04:49.325Z,10.18
2022-09-06T06:07:16.457Z,12.68
2022-09-06T06:09:43.829Z,12.38
2022-09-06T06:12:10.934Z,10.25
2022-09-06T06:14:38.086Z,11.25
2022-09-06T06:17:05.192Z,11.30
2022-09-06T06:19:32.171Z,12.95
2022-09-06T06:21:59.380Z,14.98
2022-09-06T06:24:26.393Z,12.10
2022-09-06T06:26:53.573Z,11.73
2022-09-06T06:29:20.668Z,11.77
2022-09-06T06:31:47.908Z,11.57
2022-09-06T06:34:16.484Z,10.18
2022-09-06T06:36:44.435Z,9.20
2022-09-06T06:39:11.499Z,11.05
2022-09-06T06:41:38.587Z,10.38
2022-09-06T06:44:24.683Z,11.35
2022-09-06T06:46:52.195Z,10.48
2022-09-06T06:49:19.182Z,9.70
2022-09-06T06:51:47.104Z,10.75
2022-09-06T06:54:14.202Z,10.63
2022-09-06T06:56:42.224Z,10.27
2022-09-06T06:59:09.366Z,9.98
2022-09-06T07:01:37.421Z,9.98
2022-09-06T07:04:05.641Z,10.23
2022-09-06T07:12:21.041Z,10.35
2022-09-06T07:14:48.207Z,10.82
2022-09-06T07:17:15.340Z,10.10
2022-09-06T07:22:29.836Z,9.75
2022-09-06T07:24:56.879Z,9.68
2022-09-06T07:30:11.697Z,9.82
2022-09-06T07:32:38.707Z,9.93
2022-09-06T07:35:06.223Z,10.90
2022-09-06T07:37:33.335Z,8.48
2022-09-06T07:40:00.790Z,9.40
2022-09-06T07:42:27.891Z,9.98
2022-09-06T07:44:57.802Z,8.82
2022-09-06T07:53:13.803Z,8.48
2022-09-06T07:55:43.029Z,9.07
2022-09-06T07:58:10.084Z,9.05
2022-09-06T08:00:38.572Z,8.05
2022-09-06T08:03:05.758Z,9.60
2022-09-06T08:11:07.821Z,8.07
2022-09-06T08:13:38.435Z,9.00
2022-09-06T08:16:08.107Z,7.97
2022-09-06T08:18:36.485Z,7.78
2022-09-06T08:21:15.132Z,7.40
2022-09-06T08:23:47.923Z,7.53
2022-09-06T08:26:20.877Z,8.82
2022-09-06T08:28:48.622Z,7.63
2022-09-06T08:31:17.845Z,7.38
2022-09-06T08:33:45.036Z,7.85
2022-09-06T08:36:12.329Z,9.40
2022-09-06T08:38:39.405Z,8.70
2022-09-06T08:41:08.651Z,8.52
2022-09-06T08:43:37.009Z,7.55
2022-09-06T08:46:04.721Z,7.05
2022-09-06T08:48:38.598Z,8.38
2022-09-06T08:51:32.492Z,7.10
2022-09-06T08:54:18.116Z,7.25
2022-09-06T08:57:12.463Z,6.90
2022-09-06T08:59:41.536Z,7.50
2022-09-06T09:02:13.541Z,7.75
2022-09-06T09:05:12.989Z,7.53
2022-09-06T09:07:44.818Z,7.40
2022-09-06T09:10:21.695Z,9.38
2022-09-06T09:12:50.296Z,11.65
2022-09-06T09:15:19.660Z,8.02
2022-09-06T09:17:50.484Z,10.63
2022-09-06T09:20:17.807Z,9.10
2022-09-06T09:22:45.433Z,9.27
2022-09-06T09:25:24.394Z,8.50
2022-09-06T09:28:00.331Z,8.75
2022-09-06T09:30:48.755Z,8.10
2022-09-06T09:33:39.119Z,9.68
2022-09-06T09:36:10.236Z,9.98
2022-09-06T09:38:49.811Z,7.57
2022-09-06T09:41:30.416Z,13.07
2022-09-06T09:44:04.705Z,7.63
2022-09-06T09:46:35.321Z,7.65
2022-09-06T09:49:14.536Z,8.30
2022-09-06T09:51:44.727Z,8.52
2022-09-06T09:54:14.617Z,8.13
2022-09-06T09:56:41.702Z,11.02
2022-09-06T09:59:25.879Z,11.15
2022-09-06T10:01:56.918Z,9.23
2022-09-06T10:04:44.870Z,11.10
2022-09-06T10:07:21.391Z,7.43
2022-09-06T10:09:57.449Z,8.32
2022-09-06T10:12:33.569Z,9.30
2022-09-06T10:15:04.903Z,10.73
2022-09-06T10:17:38.737Z,7.50
2022-09-06T10:20:09.426Z,7.40
2022-09-06T10:23:08.047Z,6.60
2022-09-06T10:25:38.214Z,8.05
2022-09-06T10:28:26.868Z,7.72
2022-09-06T10:31:02.590Z,8.13
2022-09-06T10:33:54.576Z,6.38
2022-09-06T10:36:36.680Z,6.47
2022-09-06T10:39:12.703Z,7.60
2022-09-06T10:41:39.684Z,6.10
2022-09-06T10:44:43.122Z,6.85
2022-09-06T10:47:15.393Z,8.85
2022-09-06T10:49:51.122Z,5.80
2022-09-06T10:52:37.890Z,6.38
2022-09-06T10:55:09.854Z,6.90
2022-09-06T11:00:50.414Z,6.03
2022-09-06T11:06:21.776Z,6.20
2022-09-06T11:09:04.431Z,5.80
2022-09-06T11:11:46.332Z,5.75
2022-09-06T11:14:15.598Z,6.47
2022-09-06T11:17:00.186Z,5.72
2022-09-06T11:19:56.896Z,7.60
2022-09-06T11:22:42.705Z,6.65
2022-09-06T11:25:27.432Z,6.63
2022-09-06T11:27:59.368Z,5.72
2022-09-06T11:30:30.061Z,5.20
2022-09-06T11:33:25.294Z,6.00
2022-09-06T11:35:53.626Z,7.32
2022-09-06T11:38:27.556Z,6.10
2022-09-06T11:41:13.720Z,5.30
2022-09-06T11:43:51.021Z,6.70
2022-09-06T11:46:33.449Z,5.47
2022-09-06T11:49:07.083Z,6.35
2022-09-06T11:51:43.617Z,6.68
2022-09-06T11:54:22.999Z,5.18
2022-09-06T11:57:01.379Z,5.28
2022-09-06T11:59:48.779Z,5.28
2022-09-06T12:02:35.411Z,4.70
2022-09-06T12:05:04.073Z,6.10
2022-09-06T12:07:33.930Z,5.70
2022-09-06T12:10:23.060Z,5.40
2022-09-06T12:12:52.757Z,5.20
2022-09-06T12:15:44.895Z,6.80
2022-09-06T12:18:52.227Z,4.57
2022-09-06T12:21:36.776Z,5.40
2022-09-06T12:24:07.124Z,5.07
2022-09-06T12:26:55.300Z,6.63
2022-09-06T12:29:27.655Z,8.68
2022-09-06T12:31:57.379Z,5.15
2022-09-06T12:34:31.426Z,7.25
2022-09-06T12:37:01.887Z,5.90
2022-09-06T12:39:29.285Z,7.32
2022-09-06T12:42:06.528Z,4.70
2022-09-06T12:44:43.554Z,4.78
2022-09-06T12:47:21.261Z,4.75
2022-09-06T12:49:48.382Z,5.18
2022-09-06T12:52:19.780Z,5.10
2022-09-06T12:57:26.132Z,4.95
2022-09-06T12:59:57.628Z,4.20
2022-09-06T13:02:31.950Z,4.18
2022-09-06T13:05:08.797Z,4.18
2022-09-06T13:07:44.092Z,5.38
2022-09-06T13:10:14.483Z,7.50
2022-09-06T13:12:45.565Z,7.82
2022-09-06T13:15:33.261Z,8.65
2022-09-06T13:18:22.538Z,4.65
2022-09-06T13:21:14.199Z,5.47
2022-09-06T13:26:31.552Z,4.28
2022-09-06T13:29:32.264Z,8.15
2022-09-06T13:32:02.479Z,4.25
2022-09-06T13:34:33.779Z,4.55
2022-09-06T13:37:05.450Z,6.93
2022-09-06T13:39:41.967Z,4.55
2022-09-06T13:42:12.039Z,6.38
2022-09-06T13:44:40.183Z,6.57
2022-09-06T13:47:07.322Z,4.40
2022-09-06T13:49:34.459Z,4.60
2022-09-06T13:52:04.429Z,5.95
2022-09-06T13:54:33.903Z,5.47
2022-09-06T13:57:04.232Z,9.80
2022-09-06T13:59:31.805Z,4.38
2022-09-06T14:02:07.878Z,6.75
2022-09-06T14:04:36.423Z,4.70
2022-09-06T14:07:04.380Z,4.22
2022-09-06T14:09:31.716Z,9.02
2022-09-06T14:11:58.848Z,4.18
2022-09-06T14:14:26.129Z,5.35
2022-09-06T14:16:54.155Z,6.90
2022-09-06T14:19:21.323Z,6.18
2022-09-06T14:21:48.788Z,3.85
2022-09-06T14:24:15.997Z,4.93
2022-09-06T14:26:43.040Z,4.50
2022-09-06T14:29:10.173Z,5.00
2022-09-06T14:31:37.387Z,5.93
2022-09-06T14:34:04.685Z,5.43
2022-09-06T14:36:34.743Z,10.18
2022-09-06T14:39:02.344Z,4.70
2022-09-06T14:41:29.566Z,5.18
2022-09-06T14:43:58.755Z,13.15
2022-09-06T14:46:27.853Z,4.93
2022-09-06T14:49:07.537Z,3.95
2022-09-06T14:51:35.509Z,6.38
2022-09-06T14:54:05.860Z,4.10
2022-09-06T14:56:33.149Z,4.50
2022-09-06T14:59:00.599Z,4.78
2022-09-06T15:01:32.964Z,4.88
2022-09-06T15:04:04.803Z,5.25
2022-09-06T15:06:33.861Z,5.32
2022-09-06T15:09:01.375Z,5.00
2022-09-06T15:11:37.513Z,7.03
2022-09-06T15:14:17.656Z,4.80
2022-09-06T15:16:46.030Z,6.18
2022-09-06T15:19:13.788Z,5.72
2022-09-06T15:21:41.095Z,4.20
2022-09-06T15:24:11.922Z,5.18
2022-09-06T15:26:41.397Z,4.30
2022-09-06T15:29:10.027Z,4.45
2022-09-06T15:31:38.490Z,5.85
2022-09-06T15:34:07.496Z,8.85
2022-09-06T15:36:34.940Z,4.57
2022-09-06T15:39:03.269Z,5.43
2022-09-06T15:41:32.899Z,4.68
2022-09-06T15:44:02.596Z,6.53
2022-09-06T15:46:54.406Z,4.75
2022-09-06T15:49:28.115Z,6.95
2022-09-06T15:51:58.351Z,4.95
2022-09-06T15:54:44.414Z,7.50
2022-09-06T15:57:13.030Z,5.93
2022-09-06T15:59:41.041Z,5.13
2022-09-06T16:02:09.432Z,4.90
2022-09-06T16:04:36.566Z,5.72
2022-09-06T16:07:04.246Z,5.97
2022-09-06T16:09:31.903Z,4.38
2022-09-06T16:11:59.077Z,4.07
2022-09-06T16:14:28.233Z,3.97
2022-09-06T16:16:56.391Z,4.50
2022-09-06T16:19:26.042Z,16.30
2022-09-06T16:21:53.179Z,3.88
2022-09-06T16:24:21.461Z,6.95
2022-09-06T16:26:48.713Z,4.30
2022-09-06T16:29:18.211Z,4.30
2022-09-06T16:31:45.759Z,3.35
2022-09-06T16:34:13.787Z,6.50
2022-09-06T16:36:41.505Z,4.30
2022-09-06T16:39:09.093Z,5.75
2022-09-06T16:41:40.757Z,6.43
2022-09-06T16:44:10.138Z,7.47
2022-09-06T16:46:40.196Z,4.38
2022-09-06T16:49:07.482Z,3.92
2022-09-06T16:51:34.645Z,6.38
2022-09-06T16:54:01.980Z,4.85
2022-09-06T16:56:33.524Z,4.65
2022-09-06T16:59:02.785Z,3.47
2022-09-06T17:01:31.376Z,10.18
2022-09-06T17:04:00.931Z,6.05
2022-09-06T17:06:29.271Z,5.07
2022-09-06T17:09:00.345Z,4.13
2022-09-06T17:11:29.044Z,3.97
2022-09-06T17:13:56.860Z,4.32
2022-09-06T17:16:43.416Z,3.50
2022-09-06T17:19:10.918Z,4.32
2022-09-06T17:21:39.297Z,4.40
2022-09-06T17:24:07.330Z,4.45
2022-09-06T17:26:37.641Z,4.45
2022-09-06T17:29:06.001Z,3.97
2022-09-06T17:31:33.530Z,4.72
2022-09-06T17:34:01.048Z,4.22
2022-09-06T17:36:32.614Z,7.85
2022-09-06T17:41:32.870Z,5.90
2022-09-06T17:44:00.761Z,6.07
2022-09-06T17:46:29.242Z,5.45
2022-09-06T17:48:57.182Z,4.22
2022-09-06T17:51:25.509Z,5.65
2022-09-06T17:53:53.474Z,6.38
2022-09-06T17:56:21.311Z,3.60
2022-09-06T17:58:56.912Z,3.58
2022-09-06T18:01:26.581Z,5.97
2022-09-06T18:03:54.442Z,3.75
2022-09-06T18:06:23.842Z,4.88
2022-09-06T18:08:53.441Z,5.13
2022-09-06T18:11:27.377Z,6.47
2022-09-06T18:14:09.228Z,4.90
2022-09-06T18:24:53.014Z,6.70
2022-09-06T18:27:22.562Z,6.20
2022-09-06T18:29:50.093Z,7.70
2022-09-06T18:32:17.587Z,11.45
2022-09-06T18:34:45.199Z,7.15
2022-09-06T18:37:12.703Z,11.93
2022-09-06T18:39:42.288Z,19.75
2022-09-06T18:42:11.629Z,16.90
2022-09-06T18:44:39.504Z,12.45
2022-09-06T18:47:09.868Z,9.77
2022-09-06T18:49:43.260Z,6.97
2022-09-06T18:52:12.215Z,7.50
2022-09-06T18:54:40.546Z,6.22
2022-09-06T18:57:08.209Z,9.52
2022-09-06T18:59:36.885Z,6.10
2022-09-06T19:02:04.550Z,6.13
2022-09-06T19:04:32.037Z,6.35
2022-09-06T19:07:03.076Z,8.50
2022-09-06T19:09:30.954Z,10.40
2022-09-06T19:11:58.578Z,6.25
2022-09-06T19:14:26.535Z,5.78
2022-09-06T19:16:54.634Z,7.25
2022-09-06T19:19:23.775Z,9.05
2022-09-06T19:21:51.666Z,8.95
2022-09-06T19:24:22.916Z,6.53
2022-09-06T19:26:53.182Z,5.70
2022-09-06T19:29:21.085Z,7.90
2022-09-06T19:31:49.875Z,5.55
2022-09-06T19:34:17.746Z,6.32
2022-09-06T19:36:46.534Z,6.70
2022-09-06T19:39:16.931Z,5.38
2022-09-06T19:41:47.905Z,6.85
2022-09-06T19:44:17.447Z,5.65
2022-09-06T19:46:47.441Z,5.85
2022-09-06T19:49:17.270Z,7.20
2022-09-06T19:51:46.883Z,6.93
2022-09-06T19:54:15.801Z,9.13
2022-09-06T19:56:44.717Z,7.20
2022-09-06T19:59:13.597Z,5.60
2022-09-06T20:01:43.048Z,6.88
2022-09-06T20:04:12.574Z,6.50
2022-09-06T20:06:40.743Z,7.68
2022-09-06T20:09:11.093Z,7.10
2022-09-06T20:11:40.373Z,7.80
2022-09-06T20:14:09.118Z,8.70
2022-09-06T20:16:41.180Z,7.05
2022-09-06T20:19:09.470Z,9.02
2022-09-06T20:21:36.857Z,8.43
2022-09-06T20:24:04.502Z,7.80
2022-09-06T20:26:32.183Z,8.45
2022-09-06T20:29:02.061Z,6.07
2022-09-06T20:31:31.714Z,6.65
2022-09-06T20:34:01.207Z,7.15
2022-09-06T20:36:30.032Z,7.18
2022-09-06T20:38:57.468Z,10.95
2022-09-06T20:41:26.834Z,6.13
2022-09-06T20:43:59.639Z,7.90
2022-09-06T20:46:29.771Z,6.97
2022-09-06T20:49:00.378Z,8.25
2022-09-06T20:51:28.092Z,7.18
2022-09-06T20:53:57.889Z,6.60
2022-09-06T20:56:30.507Z,9.73
2022-09-06T20:59:00.998Z,6.85
2022-09-06T21:01:35.274Z,6.47
2022-09-06T21:04:04.924Z,9.93
2022-09-06T21:06:36.408Z,7.53
2022-09-06T21:14:04.263Z,7.65
2022-09-06T21:16:31.801Z,6.65
2022-09-06T21:19:01.894Z,7.22
2022-09-06T21:21:33.445Z,7.35
2022-09-06T21:24:02.161Z,8.05
2022-09-06T21:26:30.035Z,9.90
2022-09-06T21:28:57.823Z,8.55
2022-09-06T21:31:31.490Z,7.82
2022-09-06T21:34:03.075Z,11.05
2022-09-06T21:39:05.832Z,8.35
2022-09-06T21:41:36.241Z,10.02
2022-09-06T21:44:04.829Z,8.93
2022-09-06T21:46:34.603Z,10.05
2022-09-06T21:49:09.982Z,8.40
2022-09-06T21:51:37.749Z,8.15
2022-09-06T21:54:06.038Z,8.60
2022-09-06T21:56:34.479Z,8.57
2022-09-06T21:59:02.208Z,10.25
2022-09-06T22:01:32.679Z,13.02
2022-09-06T22:04:00.486Z,9.50
2022-09-06T22:06:29.570Z,8.55
2022-09-06T22:09:00.503Z,7.40
2022-09-06T22:11:30.824Z,8.02
2022-09-06T22:14:04.173Z,7.72
2022-09-06T22:16:33.714Z,11.73
2022-09-06T22:19:00.970Z,8.85
2022-09-06T22:21:28.343Z,7.40
2022-09-06T22:24:00.865Z,7.25
2022-09-06T22:26:30.286Z,8.90
2022-09-06T22:29:03.076Z,10.18
2022-09-06T22:31:32.128Z,7.68
2022-09-06T22:34:00.239Z,7.55
2022-09-06T22:36:28.076Z,8.63
2022-09-06T22:38:57.594Z,7.20
2022-09-06T22:41:27.270Z,7.28
2022-09-06T22:43:54.491Z,8.50
2022-09-06T22:46:21.812Z,7.15
2022-09-06T22:48:49.447Z,7.63
2022-09-06T22:51:16.816Z,6.10
2022-09-06T22:53:44.013Z,6.85
2022-09-06T22:56:11.326Z,5.93
2022-09-06T22:58:38.526Z,9.63
2022-09-06T23:01:11.255Z,10.15
2022-09-06T23:03:39.152Z,6.28
2022-09-06T23:06:06.566Z,6.10
2022-09-06T23:08:38.273Z,8.63
2022-09-06T23:13:34.291Z,10.63
2022-09-06T23:16:09.695Z,7.45
2022-09-06T23:18:36.849Z,8.85
2022-09-06T23:21:08.972Z,7.15
2022-09-06T23:23:36.905Z,7.68
2022-09-06T23:26:09.213Z,6.22
2022-09-06T23:28:36.940Z,6.72
2022-09-06T23:31:06.233Z,9.57
2022-09-06T23:33:37.475Z,7.95
2022-09-06T23:36:09.794Z,7.82
2022-09-06T23:38:38.557Z,7.47
2022-09-06T23:41:06.591Z,7.18
2022-09-06T23:43:33.825Z,6.40
2022-09-06T23:46:00.926Z,7.78
2022-09-06T23:48:28.291Z,6.88
2022-09-06T23:50:55.395Z,8.95
2022-09-06T23:53:22.533Z,10.00
2022-09-06T23:55:49.932Z,7.00
2022-09-06T23:58:17.200Z,6.15
